createdAt,value
2023-02-13T00:00:46.616Z,82.44
2023-02-13T00:03:15.784Z,82.51
2023-02-13T00:05:43.524Z,82.54
2023-02-13T00:08:11.233Z,82.64
2023-02-13T00:10:38.949Z,82.53
2023-02-13T00:13:06.627Z,82.50
2023-02-13T00:15:34.355Z,82.52
2023-02-13T00:18:02.884Z,82.57
2023-02-13T00:20:31.977Z,82.57
2023-02-13T00:23:00.036Z,82.62
2023-02-13T00:25:27.806Z,82.74
2023-02-13T00:27:55.641Z,82.63
2023-02-13T00:30:23.693Z,82.75
2023-02-13T00:32:52.329Z,82.99
2023-02-13T00:35:20.063Z,82.70
2023-02-13T00:37:49.128Z,82.47
2023-02-13T00:40:16.820Z,82.36
2023-02-13T00:42:44.508Z,82.40
2023-02-13T00:45:12.202Z,82.25
2023-02-13T00:47:39.839Z,82.39
2023-02-13T00:50:08.381Z,82.40
2023-02-13T00:52:37.570Z,82.47
2023-02-13T00:55:07.444Z,82.18
2023-02-13T00:57:37.283Z,82.33
2023-02-13T01:00:05.847Z,82.43
2023-02-13T01:02:36.202Z,82.38
2023-02-13T01:05:04.064Z,82.21
2023-02-13T01:07:31.775Z,82.31
2023-02-13T01:09:59.446Z,82.05
2023-02-13T01:12:29.386Z,82.05
2023-02-13T01:14:57.122Z,82.10
2023-02-13T01:17:24.763Z,82.07
2023-02-13T01:19:55.523Z,81.89
2023-02-13T01:22:23.629Z,82.04
2023-02-13T01:24:51.371Z,82.06
2023-02-13T01:27:19.168Z,81.89
2023-02-13T01:29:48.184Z,81.78
2023-02-13T01:32:15.930Z,82.08
2023-02-13T01:34:43.573Z,81.90
2023-02-13T01:37:12.212Z,82.04
2023-02-13T01:39:39.929Z,82.11
2023-02-13T01:42:16.812Z,81.82
2023-02-13T01:44:51.615Z,82.10
2023-02-13T01:47:25.574Z,82.18
2023-02-13T01:50:02.780Z,82.17
2023-02-13T01:52:31.741Z,82.20
2023-02-13T01:54:59.485Z,82.22
2023-02-13T01:57:29.769Z,81.91
2023-02-13T02:00:03.696Z,82.14
2023-02-13T02:02:51.223Z,82.07
2023-02-13T02:05:24.072Z,82.03
2023-02-13T02:07:52.447Z,82.22
2023-02-13T02:10:23.927Z,82.17
2023-02-13T02:12:59.326Z,82.21
2023-02-13T02:15:29.508Z,81.94
2023-02-13T02:17:57.276Z,82.10
2023-02-13T02:20:43.385Z,81.84
2023-02-13T02:23:46.366Z,81.88
2023-02-13T02:26:52.381Z,82.09
2023-02-13T02:29:48.177Z,82.02
2023-02-13T02:32:50.143Z,82.00
2023-02-13T02:35:28.540Z,82.07
2023-02-13T02:38:24.899Z,81.90
2023-02-13T02:41:03.337Z,81.96
2023-02-13T02:43:52.196Z,81.91
2023-02-13T02:46:28.729Z,82.11
2023-02-13T02:49:20.262Z,81.96
2023-02-13T02:51:57.279Z,82.06
2023-02-13T02:54:49.409Z,82.17
2023-02-13T02:57:23.409Z,82.22
2023-02-13T03:00:15.484Z,82.25
2023-02-13T03:03:00.669Z,82.09
2023-02-13T03:05:50.038Z,82.39
2023-02-13T03:08:39.728Z,82.27
2023-02-13T03:11:24.986Z,82.36
2023-02-13T03:13:54.304Z,82.26
2023-02-13T03:16:43.168Z,82.30
2023-02-13T03:19:35.010Z,82.41
2023-02-13T03:22:23.564Z,82.55
2023-02-13T03:25:01.472Z,82.48
2023-02-13T03:27:57.124Z,82.45
2023-02-13T03:30:37.986Z,82.41
2023-02-13T03:33:19.277Z,82.17
2023-02-13T03:36:08.922Z,82.24
2023-02-13T03:38:47.522Z,82.40
2023-02-13T03:41:21.109Z,82.26
2023-02-13T03:44:04.991Z,82.30
2023-02-13T03:46:36.836Z,82.32
2023-02-13T03:49:25.309Z,82.24
2023-02-13T03:51:58.870Z,82.33
2023-02-13T03:54:51.152Z,82.34
2023-02-13T03:57:39.265Z,82.21
2023-02-13T04:00:12.175Z,82.26
2023-02-13T04:02:53.450Z,82.36
2023-02-13T04:05:25.436Z,82.29
2023-02-13T04:07:53.322Z,82.26
2023-02-13T04:10:25.954Z,82.27
2023-02-13T04:13:02.090Z,82.10
2023-02-13T04:15:36.663Z,82.19
2023-02-13T04:18:10.873Z,82.19
2023-02-13T04:20:39.388Z,81.87
2023-02-13T04:23:08.992Z,81.96
2023-02-13T04:25:40.406Z,81.97
2023-02-13T04:28:08.355Z,81.85
2023-02-13T04:30:36.105Z,81.96
2023-02-13T04:33:04.046Z,81.54
2023-02-13T04:35:31.815Z,81.91
2023-02-13T04:37:59.763Z,81.73
2023-02-13T04:40:27.436Z,81.51
2023-02-13T04:42:56.818Z,81.38
2023-02-13T04:45:24.483Z,81.45
2023-02-13T04:47:53.088Z,81.51
2023-02-13T04:50:21.068Z,81.35
2023-02-13T04:52:48.944Z,81.43
2023-02-13T04:55:16.680Z,81.16
2023-02-13T04:57:44.328Z,81.27
2023-02-13T05:00:14.627Z,81.11
2023-02-13T05:02:42.286Z,81.30
2023-02-13T05:05:09.997Z,81.31
2023-02-13T05:07:37.648Z,81.35
2023-02-13T05:10:06.077Z,81.48
2023-02-13T05:12:33.783Z,81.09
2023-02-13T05:15:01.519Z,81.59
2023-02-13T05:17:30.595Z,81.36
2023-02-13T05:19:59.137Z,81.42
2023-02-13T05:22:44.580Z,81.34
2023-02-13T05:25:12.304Z,81.45
2023-02-13T05:27:39.982Z,81.29
2023-02-13T05:30:07.696Z,81.54
2023-02-13T05:32:36.803Z,81.23
2023-02-13T05:35:05.110Z,81.24
2023-02-13T05:37:33.049Z,81.05
2023-02-13T05:40:00.794Z,81.38
2023-02-13T05:42:28.457Z,81.39
2023-02-13T05:44:56.106Z,81.51
2023-02-13T05:47:23.829Z,81.36
2023-02-13T05:49:52.936Z,81.40
2023-02-13T05:52:20.648Z,81.44
2023-02-13T05:54:48.464Z,81.55
2023-02-13T05:57:16.327Z,81.62
2023-02-13T05:59:44.042Z,81.74
2023-02-13T06:02:12.116Z,81.37
2023-02-13T06:04:41.269Z,81.73
2023-02-13T06:07:10.320Z,81.60
2023-02-13T06:09:38.127Z,81.69
2023-02-13T06:12:06.324Z,81.58
2023-02-13T06:14:33.996Z,81.52
2023-02-13T06:17:01.912Z,81.63
2023-02-13T06:19:29.745Z,81.45
2023-02-13T06:21:57.444Z,81.40
2023-02-13T06:24:26.447Z,81.69
2023-02-13T06:26:54.205Z,81.50
2023-02-13T06:29:21.890Z,81.55
2023-02-13T06:31:49.690Z,81.63
2023-02-13T06:34:17.407Z,81.69
2023-02-13T06:36:45.098Z,81.58
2023-02-13T06:39:12.853Z,81.57
2023-02-13T06:41:41.921Z,81.75
2023-02-13T06:44:09.732Z,81.41
2023-02-13T06:46:37.433Z,81.47
2023-02-13T06:49:05.150Z,81.49
2023-02-13T06:51:32.901Z,81.43
2023-02-13T06:54:00.522Z,81.28
2023-02-13T06:56:28.200Z,81.42
2023-02-13T06:58:57.198Z,81.33
2023-02-13T07:01:25.049Z,81.33
2023-02-13T07:03:52.884Z,81.36
2023-02-13T07:06:20.896Z,81.47
2023-02-13T07:08:51.326Z,81.34
2023-02-13T07:11:19.796Z,81.11
2023-02-13T07:13:47.425Z,81.43
2023-02-13T07:16:16.761Z,81.01
2023-02-13T07:18:44.509Z,81.33
2023-02-13T07:21:12.196Z,81.36
2023-02-13T07:23:39.972Z,81.16
2023-02-13T07:26:08.032Z,81.08
2023-02-13T07:28:35.789Z,80.94
2023-02-13T07:31:05.631Z,81.00
2023-02-13T07:33:34.944Z,80.92
2023-02-13T07:36:03.608Z,80.69
2023-02-13T07:38:32.865Z,80.62
2023-02-13T07:41:00.917Z,80.32
2023-02-13T07:43:28.983Z,80.53
2023-02-13T07:45:59.905Z,80.17
2023-02-13T07:48:28.178Z,80.30
2023-02-13T07:51:01.698Z,80.20
2023-02-13T07:53:29.939Z,80.26
2023-02-13T07:55:58.059Z,79.95
2023-02-13T07:58:25.922Z,79.98
2023-02-13T08:00:53.622Z,79.74
2023-02-13T08:03:21.282Z,79.67
2023-02-13T08:05:50.182Z,79.77
2023-02-13T08:08:19.192Z,79.68
2023-02-13T08:11:04.243Z,79.52
2023-02-13T08:13:33.117Z,79.43
2023-02-13T08:16:00.897Z,79.39
2023-02-13T08:18:28.623Z,79.25
2023-02-13T08:20:56.282Z,78.89
2023-02-13T08:23:25.507Z,78.95
2023-02-13T08:25:54.907Z,78.63
2023-02-13T08:28:25.922Z,78.40
2023-02-13T08:30:53.652Z,78.71
2023-02-13T08:33:21.478Z,78.23
2023-02-13T08:35:49.163Z,78.42
2023-02-13T08:38:16.958Z,78.13
2023-02-13T08:40:46.033Z,78.09
2023-02-13T08:43:13.794Z,78.05
2023-02-13T08:45:41.652Z,77.81
2023-02-13T08:48:09.434Z,77.72
2023-02-13T08:50:37.523Z,77.20
2023-02-13T08:53:05.425Z,77.17
2023-02-13T08:55:33.297Z,76.93
2023-02-13T08:58:03.226Z,76.99
2023-02-13T09:00:31.663Z,76.77
2023-02-13T09:03:01.885Z,76.61
2023-02-13T09:05:31.242Z,76.32
2023-02-13T09:08:02.630Z,76.31
2023-02-13T09:10:30.713Z,76.03
2023-02-13T09:12:58.556Z,76.17
2023-02-13T09:15:27.788Z,75.66
2023-02-13T09:17:55.517Z,75.59
2023-02-13T09:20:23.283Z,75.07
2023-02-13T09:22:51.040Z,75.01
2023-02-13T09:25:20.191Z,75.03
2023-02-13T09:27:47.996Z,74.66
2023-02-13T09:30:23.127Z,74.46
2023-02-13T09:32:52.445Z,74.37
2023-02-13T09:35:20.984Z,73.55
2023-02-13T09:37:48.920Z,73.57
2023-02-13T09:40:25.375Z,72.95
2023-02-13T09:42:54.641Z,72.22
2023-02-13T09:45:23.332Z,72.24
2023-02-13T09:47:53.339Z,72.39
2023-02-13T09:50:27.245Z,71.41
2023-02-13T09:52:59.383Z,71.99
2023-02-13T09:55:37.245Z,71.36
2023-02-13T09:58:10.570Z,71.05
2023-02-13T10:00:42.357Z,70.75
2023-02-13T10:03:22.554Z,69.79
2023-02-13T10:06:01.314Z,69.43
2023-02-13T10:08:50.789Z,69.60
2023-02-13T10:11:49.398Z,69.22
2023-02-13T10:14:20.280Z,69.37
2023-02-13T10:16:53.470Z,69.24
2023-02-13T10:19:35.420Z,67.98
2023-02-13T10:22:08.098Z,68.17
2023-02-13T10:24:40.878Z,67.05
2023-02-13T10:27:22.296Z,66.74
2023-02-13T10:30:12.454Z,67.42
2023-02-13T10:32:53.141Z,66.92
2023-02-13T10:35:27.505Z,66.13
2023-02-13T10:37:57.314Z,66.99
2023-02-13T10:40:32.552Z,66.10
2023-02-13T10:43:08.462Z,65.80
2023-02-13T10:45:54.931Z,63.71
2023-02-13T10:48:48.462Z,64.38
2023-02-13T10:51:26.198Z,65.68
2023-02-13T10:54:11.053Z,65.22
2023-02-13T10:56:43.688Z,65.51
2023-02-13T10:59:31.902Z,64.24
2023-02-13T11:02:09.414Z,65.19
2023-02-13T11:04:37.146Z,65.25
2023-02-13T11:07:13.759Z,64.85
2023-02-13T11:09:44.700Z,62.18
2023-02-13T11:12:26.568Z,63.48
2023-02-13T11:14:59.391Z,63.69
2023-02-13T11:17:29.738Z,64.44
2023-02-13T11:19:59.120Z,64.62
2023-02-13T11:22:33.214Z,63.36
2023-02-13T11:25:05.109Z,63.69
2023-02-13T11:27:35.943Z,63.39
2023-02-13T11:30:07.246Z,63.13
2023-02-13T11:32:36.304Z,63.21
2023-02-13T11:35:28.153Z,61.40
2023-02-13T11:38:21.477Z,61.78
2023-02-13T11:40:52.700Z,63.68
2023-02-13T11:43:27.098Z,62.77
2023-02-13T11:46:06.779Z,61.93
2023-02-13T11:48:35.407Z,63.03
2023-02-13T11:51:03.630Z,63.73
2023-02-13T11:53:37.421Z,63.77
2023-02-13T11:56:09.424Z,63.74
2023-02-13T11:58:37.848Z,64.38
2023-02-13T12:01:12.726Z,64.21
2023-02-13T12:03:42.882Z,64.67
2023-02-13T12:06:15.367Z,64.41
2023-02-13T12:08:46.869Z,65.01
2023-02-13T12:11:23.371Z,65.46
2023-02-13T12:13:52.842Z,66.03
2023-02-13T12:16:30.962Z,65.92
2023-02-13T12:19:02.090Z,66.47
2023-02-13T12:21:49.524Z,66.32
2023-02-13T12:24:35.667Z,66.35
2023-02-13T12:27:11.316Z,66.49
2023-02-13T12:29:56.668Z,65.78
2023-02-13T12:32:36.597Z,66.13
2023-02-13T12:35:32.703Z,65.58
2023-02-13T12:38:02.675Z,65.17
2023-02-13T12:40:53.920Z,65.88
2023-02-13T12:43:38.101Z,66.26
2023-02-13T12:46:10.905Z,66.72
2023-02-13T12:48:45.100Z,67.14
2023-02-13T12:51:25.713Z,67.49
2023-02-13T12:54:15.220Z,68.16
2023-02-13T12:57:07.140Z,68.08
2023-02-13T12:59:54.017Z,68.48
2023-02-13T13:02:45.378Z,69.01
2023-02-13T13:05:25.828Z,69.25
2023-02-13T13:08:07.128Z,69.41
2023-02-13T13:10:45.509Z,69.88
2023-02-13T13:13:27.971Z,70.57
2023-02-13T13:16:02.931Z,70.77
2023-02-13T13:18:43.948Z,71.00
2023-02-13T13:21:24.027Z,71.40
2023-02-13T13:24:01.118Z,71.56
2023-02-13T13:26:37.178Z,71.87
2023-02-13T13:29:12.720Z,72.13
2023-02-13T13:31:40.887Z,72.59
2023-02-13T13:34:21.903Z,72.54
2023-02-13T13:36:55.463Z,72.51
2023-02-13T13:39:34.357Z,72.96
2023-02-13T13:42:11.160Z,72.90
2023-02-13T13:45:04.754Z,73.73
2023-02-13T13:47:47.189Z,73.87
2023-02-13T13:50:22.128Z,74.51
2023-02-13T13:53:09.085Z,74.59
2023-02-13T13:56:03.491Z,74.83
2023-02-13T13:58:40.653Z,74.58
2023-02-13T14:01:24.362Z,74.76
2023-02-13T14:03:54.277Z,74.41
2023-02-13T14:06:24.404Z,74.76
2023-02-13T14:09:06.082Z,74.93
2023-02-13T14:11:51.498Z,75.36
2023-02-13T14:14:55.930Z,75.53
2023-02-13T14:17:51.974Z,76.17
2023-02-13T14:20:44.111Z,76.01
2023-02-13T14:23:53.071Z,75.79
2023-02-13T14:26:32.377Z,75.71
2023-02-13T14:29:16.256Z,75.98
2023-02-13T14:31:53.314Z,75.92
2023-02-13T14:34:29.602Z,76.32
2023-02-13T14:37:20.895Z,76.68
2023-02-13T14:40:28.405Z,76.94
2023-02-13T14:42:59.470Z,76.82
2023-02-13T14:45:33.223Z,76.68
2023-02-13T14:48:07.639Z,76.86
2023-02-13T14:50:46.604Z,77.13
2023-02-13T14:53:23.554Z,77.46
2023-02-13T14:55:57.860Z,77.36
2023-02-13T14:58:30.189Z,77.47
2023-02-13T15:01:04.177Z,77.95
2023-02-13T15:03:39.046Z,78.11
2023-02-13T15:06:15.388Z,77.88
2023-02-13T15:08:49.076Z,77.94
2023-02-13T15:11:38.112Z,78.63
2023-02-13T15:14:34.297Z,78.58
2023-02-13T15:17:07.174Z,78.66
2023-02-13T15:19:37.962Z,78.69
2023-02-13T15:22:08.069Z,78.82
2023-02-13T15:24:44.661Z,78.95
2023-02-13T15:27:20.947Z,79.60
2023-02-13T15:30:00.294Z,80.03
2023-02-13T15:32:31.627Z,79.24
2023-02-13T15:34:59.810Z,79.25
2023-02-13T15:37:31.305Z,79.86
2023-02-13T15:40:18.238Z,80.31
2023-02-13T15:42:46.518Z,80.16
2023-02-13T15:45:17.354Z,80.62
2023-02-13T15:47:46.144Z,80.30
2023-02-13T15:50:19.520Z,80.53
2023-02-13T15:52:49.139Z,80.38
2023-02-13T15:55:22.016Z,80.53
2023-02-13T15:57:51.215Z,80.72
2023-02-13T16:00:25.703Z,81.00
2023-02-13T16:02:55.866Z,81.28
2023-02-13T16:05:39.050Z,81.38
2023-02-13T16:08:28.257Z,82.17
2023-02-13T16:11:21.617Z,82.20
2023-02-13T16:14:06.984Z,81.99
2023-02-13T16:16:43.088Z,82.45
2023-02-13T16:19:24.000Z,82.88
2023-02-13T16:21:52.884Z,82.87
2023-02-13T16:24:22.797Z,82.73
2023-02-13T16:26:50.757Z,83.14
2023-02-13T16:29:21.680Z,82.97
2023-02-13T16:31:51.238Z,83.58
2023-02-13T16:34:27.277Z,84.08
2023-02-13T16:36:55.648Z,84.28
2023-02-13T16:39:30.121Z,84.37
2023-02-13T16:41:58.568Z,84.44
2023-02-13T16:44:29.445Z,84.92
2023-02-13T16:47:01.396Z,84.92
2023-02-13T16:49:32.453Z,84.83
2023-02-13T16:52:07.778Z,85.00
2023-02-13T16:54:40.305Z,85.20
2023-02-13T16:57:23.541Z,85.76
2023-02-13T17:00:01.797Z,85.50
2023-02-13T17:02:30.180Z,85.93
2023-02-13T17:05:03.077Z,85.84
2023-02-13T17:07:34.602Z,86.01
2023-02-13T17:10:06.491Z,86.14
2023-02-13T17:12:39.153Z,86.46
2023-02-13T17:15:13.272Z,86.61
2023-02-13T17:17:41.680Z,86.87
2023-02-13T17:20:17.345Z,87.20
2023-02-13T17:22:47.821Z,87.33
2023-02-13T17:25:21.818Z,87.74
2023-02-13T17:27:50.602Z,87.13
2023-02-13T17:30:20.497Z,87.47
2023-02-13T17:32:49.363Z,87.97
2023-02-13T17:35:17.870Z,87.82
2023-02-13T17:37:45.789Z,87.88
2023-02-13T17:40:18.952Z,88.25
2023-02-13T17:42:48.518Z,88.27
2023-02-13T17:45:18.713Z,88.38
2023-02-13T17:47:46.404Z,88.68
2023-02-13T17:50:15.024Z,88.27
2023-02-13T17:52:43.289Z,88.39
2023-02-13T17:55:18.965Z,88.39
2023-02-13T17:57:46.915Z,88.43
2023-02-13T18:00:15.844Z,88.77
2023-02-13T18:02:43.570Z,89.01
2023-02-13T18:05:11.980Z,88.86
2023-02-13T18:07:41.435Z,89.27
2023-02-13T18:10:12.116Z,89.38
2023-02-13T18:12:42.406Z,89.24
2023-02-13T18:15:10.696Z,89.57
2023-02-13T18:17:39.107Z,90.13
2023-02-13T18:20:08.432Z,89.69
2023-02-13T18:22:36.115Z,90.11
2023-02-13T18:25:03.905Z,89.91
2023-02-13T18:27:31.861Z,90.01
2023-02-13T18:30:00.897Z,90.52
2023-02-13T18:32:28.879Z,90.36
2023-02-13T18:34:56.553Z,90.14
2023-02-13T18:37:24.290Z,90.32
2023-02-13T18:39:51.946Z,90.65
2023-02-13T18:42:19.846Z,90.58
2023-02-13T18:44:47.526Z,91.16
2023-02-13T18:47:17.322Z,91.08
2023-02-13T18:49:46.362Z,91.00
2023-02-13T18:52:14.083Z,90.91
2023-02-13T18:54:41.770Z,91.35
2023-02-13T18:57:10.121Z,91.28
2023-02-13T18:59:37.789Z,91.68
2023-02-13T19:02:05.498Z,91.69
2023-02-13T19:04:35.762Z,91.72
2023-02-13T19:07:03.454Z,91.46
2023-02-13T19:09:31.118Z,91.57
2023-02-13T19:11:58.765Z,91.37
2023-02-13T19:14:26.961Z,91.75
2023-02-13T19:16:55.682Z,91.85
2023-02-13T19:19:23.381Z,91.83
2023-02-13T19:21:52.725Z,91.71
2023-02-13T19:24:20.357Z,91.42
2023-02-13T19:26:48.314Z,91.27
2023-02-13T19:29:15.956Z,91.36
2023-02-13T19:31:43.862Z,91.85
2023-02-13T19:34:11.588Z,91.84
2023-02-13T19:36:39.494Z,91.38
2023-02-13T19:39:09.083Z,91.47
2023-02-13T19:41:37.173Z,91.28
2023-02-13T19:44:05.259Z,91.55
2023-02-13T19:46:33.986Z,91.78
2023-02-13T19:49:02.521Z,91.48
2023-02-13T19:51:32.048Z,91.85
2023-02-13T19:54:01.566Z,91.91
2023-02-13T19:56:31.377Z,91.56
2023-02-13T19:58:59.264Z,91.83
2023-02-13T20:01:29.445Z,91.88
2023-02-13T20:03:57.721Z,92.07
2023-02-13T20:06:27.891Z,92.08
2023-02-13T20:08:58.664Z,92.43
2023-02-13T20:11:26.880Z,91.83
2023-02-13T20:13:57.401Z,91.92
2023-02-13T20:16:25.316Z,92.15
2023-02-13T20:18:53.360Z,91.72
2023-02-13T20:21:21.359Z,91.66
2023-02-13T20:23:51.259Z,92.34
2023-02-13T20:26:19.329Z,92.23
2023-02-13T20:28:48.075Z,92.40
2023-02-13T20:31:19.291Z,92.29
2023-02-13T20:33:47.708Z,92.02
2023-02-13T20:36:17.511Z,92.34
2023-02-13T20:38:45.686Z,92.04
2023-02-13T20:41:15.862Z,92.42
2023-02-13T20:43:44.155Z,92.00
2023-02-13T20:46:12.303Z,92.38
2023-02-13T20:48:44.610Z,92.43
2023-02-13T20:51:14.243Z,92.14
2023-02-13T20:53:43.302Z,92.01
2023-02-13T20:56:13.509Z,92.25
2023-02-13T20:58:42.828Z,92.36
2023-02-13T21:01:14.813Z,91.99
2023-02-13T21:03:44.424Z,92.42
2023-02-13T21:06:12.753Z,91.97
2023-02-13T21:08:43.181Z,91.93
2023-02-13T21:11:10.913Z,92.37
2023-02-13T21:13:40.067Z,92.40
2023-02-13T21:16:09.869Z,92.11
2023-02-13T21:18:37.817Z,92.41
2023-02-13T21:21:07.965Z,92.73
2023-02-13T21:23:35.709Z,92.46
2023-02-13T21:26:04.719Z,92.71
2023-02-13T21:28:32.928Z,92.47
2023-02-13T21:31:06.629Z,93.07
2023-02-13T21:33:34.494Z,92.67
2023-02-13T21:36:03.288Z,92.89
2023-02-13T21:38:32.327Z,92.94
2023-02-13T21:41:05.838Z,93.03
2023-02-13T21:43:37.471Z,93.01
2023-02-13T21:46:09.403Z,92.81
2023-02-13T21:48:37.491Z,92.51
2023-02-13T21:51:09.210Z,92.80
2023-02-13T21:53:38.397Z,92.80
2023-02-13T21:56:08.883Z,92.65
2023-02-13T21:58:38.241Z,92.27
2023-02-13T22:01:23.809Z,92.63
2023-02-13T22:03:53.650Z,92.66
2023-02-13T22:06:21.785Z,92.76
2023-02-13T22:08:56.226Z,92.70
2023-02-13T22:11:23.876Z,92.86
2023-02-13T22:13:55.659Z,92.49
2023-02-13T22:16:23.573Z,92.37
2023-02-13T22:18:51.303Z,92.47
2023-02-13T22:21:21.584Z,92.64
2023-02-13T22:23:51.909Z,92.56
2023-02-13T22:26:21.359Z,92.37
2023-02-13T22:28:50.040Z,92.46
2023-02-13T22:31:19.335Z,92.49
2023-02-13T22:33:55.355Z,92.50
2023-02-13T22:36:30.833Z,92.76
2023-02-13T22:38:59.920Z,92.52
2023-02-13T22:41:28.193Z,92.54
2023-02-13T22:43:55.948Z,92.16
2023-02-13T22:46:25.440Z,92.67
2023-02-13T22:48:53.863Z,92.33
2023-02-13T22:51:23.590Z,92.41
2023-02-13T22:53:53.788Z,92.45
2023-02-13T22:56:23.160Z,92.81
2023-02-13T22:58:50.828Z,92.92
2023-02-13T23:01:20.936Z,92.44
2023-02-13T23:03:48.836Z,92.35
2023-02-13T23:06:17.224Z,93.09
2023-02-13T23:08:45.067Z,92.43
2023-02-13T23:11:35.095Z,92.58
2023-02-13T23:14:04.465Z,92.80
2023-02-13T23:16:52.615Z,93.00
2023-02-13T23:19:19.635Z,92.67
2023-02-13T23:21:47.396Z,92.56
2023-02-13T23:24:15.205Z,93.41
2023-02-13T23:26:42.991Z,93.15
2023-02-13T23:29:12.100Z,93.21
2023-02-13T23:31:39.918Z,92.68
2023-02-13T23:34:07.699Z,92.63
2023-02-13T23:36:35.851Z,92.64
2023-02-13T23:39:03.559Z,92.56
2023-02-13T23:41:31.448Z,92.46
2023-02-13T23:43:59.113Z,92.61
2023-02-13T23:46:28.206Z,92.69
2023-02-13T23:48:55.959Z,92.45
2023-02-13T23:51:25.524Z,92.44
2023-02-13T23:53:56.007Z,92.43
2023-02-13T23:56:24.626Z,92.35
2023-02-13T23:58:52.374Z,92.28
